Time;durP1;ratioP1;P1;durP2;ratioP2;P2;SDS_P1;SDS_P2;PMS_P1;PMS_P2;Temp;Humidity;BMP_temperature;BMP_pressure;BME280_temperature;BME280_humidity;BME280_pressure;Samples;Min_cycle;Max_cycle;Signal;HPM_P1;HPM_P2
2022/09/26 00:01:27;;;;;;;0.30;0.30;;;10.80;99.90;;;;;;5082654;28;20097;-88
2022/09/26 00:03:56;;;;;;;0.30;0.30;;;10.80;99.90;;;;;;5071879;28;20081;-88
2022/09/26 00:06:23;;;;;;;0.40;0.40;;;10.90;99.90;;;;;;5072589;28;20042;-88
2022/09/26 00:08:49;;;;;;;0.30;0.30;;;10.90;99.90;;;;;;5090069;28;20559;-87
2022/09/26 00:11:18;;;;;;;0.30;0.30;;;11.00;99.90;;;;;;5084271;28;20051;-87
2022/09/26 00:13:45;;;;;;;0.45;0.45;;;11.00;99.90;;;;;;5076594;28;20075;-85
2022/09/26 00:16:11;;;;;;;0.47;0.47;;;11.00;99.90;;;;;;5084567;28;20047;-87
2022/09/26 00:18:38;;;;;;;0.40;0.40;;;11.00;99.90;;;;;;5092401;28;20094;-88
2022/09/26 00:21:08;;;;;;;0.35;0.35;;;10.90;99.90;;;;;;5083910;28;20115;-87
2022/09/26 00:23:35;;;;;;;0.32;0.32;;;11.00;99.90;;;;;;5084033;28;20040;-86
2022/09/26 00:26:01;;;;;;;0.40;0.40;;;10.90;99.90;;;;;;5060240;28;20116;-89
2022/09/26 00:28:27;;;;;;;0.30;0.30;;;10.90;99.90;;;;;;5052913;28;20127;-86
2022/09/26 00:30:53;;;;;;;0.40;0.40;;;11.00;99.90;;;;;;5070997;28;20110;-86
2022/09/26 00:33:20;;;;;;;;;;;11.00;99.90;;;;;;5098517;28;20040;-85
2022/09/26 00:35:53;;;;;;;0.45;0.45;;;10.90;99.90;;;;;;5087020;28;19931;-86
2022/09/26 00:38:23;;;;;;;0.43;0.43;;;10.90;99.90;;;;;;5102463;28;20123;-87
2022/09/26 00:40:49;;;;;;;;;;;10.90;99.90;;;;;;5087216;28;20392;-87
2022/09/26 00:43:26;;;;;;;0.57;0.57;;;11.00;99.90;;;;;;5089627;28;20380;-87
2022/09/26 00:45:54;;;;;;;0.40;0.40;;;10.90;99.90;;;;;;5091959;28;20047;-85
2022/09/26 00:48:20;;;;;;;0.30;0.30;;;11.00;99.90;;;;;;5074821;28;20044;-89
2022/09/26 00:50:47;;;;;;;0.40;0.40;;;11.00;99.90;;;;;;5075611;28;20844;-87
2022/09/26 00:53:23;;;;;;;2.15;0.80;;;11.00;99.90;;;;;;5086819;28;20055;-87
2022/09/26 00:55:54;;;;;;;;;;;11.10;99.90;;;;;;5081699;28;20036;-88
2022/09/26 00:58:36;;;;;;;0.40;0.40;;;11.00;99.90;;;;;;5089429;28;19916;-88
2022/09/26 01:01:01;;;;;;;0.40;0.40;;;11.00;99.90;;;;;;5089975;28;20040;-87
2022/09/26 01:03:29;;;;;;;0.32;0.32;;;10.90;99.90;;;;;;5089516;28;20123;-88
2022/09/26 01:05:55;;;;;;;0.40;0.40;;;10.90;99.90;;;;;;5069516;28;20044;-88
2022/09/26 01:08:28;;;;;;;0.40;0.40;;;10.90;99.90;;;;;;5087833;28;20042;-87
2022/09/26 01:10:55;;;;;;;0.30;0.30;;;10.90;99.90;;;;;;5088542;28;20535;-88
2022/09/26 01:13:21;;;;;;;0.45;0.45;;;11.00;99.90;;;;;;5091287;28;20185;-86
2022/09/26 01:15:47;;;;;;;0.35;0.35;;;11.00;99.90;;;;;;5084249;28;20138;-84
2022/09/26 01:18:12;;;;;;;0.35;0.35;;;11.00;99.90;;;;;;5089757;28;20051;-87
2022/09/26 01:21:13;;;;;;;0.40;0.40;;;11.00;99.90;;;;;;5092739;28;20056;-85
2022/09/26 01:24:01;;;;;;;0.35;0.35;;;11.00;99.90;;;;;;5072579;28;20075;-85
2022/09/26 01:26:57;;;;;;;0.30;0.30;;;11.00;99.90;;;;;;5078213;28;20094;-85
2022/09/26 01:30:01;;;;;;;0.30;0.30;;;11.00;99.90;;;;;;5070844;28;20052;-85
2022/09/26 01:33:07;;;;;;;0.25;0.25;;;11.00;99.90;;;;;;5087224;28;20060;-88
2022/09/26 01:36:02;;;;;;;0.40;0.40;;;11.00;99.90;;;;;;5087456;28;20054;-88
2022/09/26 01:38:46;;;;;;;0.30;0.30;;;11.00;99.90;;;;;;5087554;28;20055;-87
2022/09/26 01:41:49;;;;;;;0.40;0.40;;;11.00;99.90;;;;;;5085491;28;20070;-87
2022/09/26 01:44:27;;;;;;;0.47;0.47;;;11.00;99.90;;;;;;5091180;28;20040;-85
2022/09/26 01:47:04;;;;;;;0.55;0.55;;;10.90;99.90;;;;;;5081125;28;20040;-86
2022/09/26 01:49:36;;;;;;;0.45;0.45;;;10.90;99.90;;;;;;5085685;28;20052;-85
2022/09/26 01:52:14;;;;;;;0.30;0.30;;;10.90;99.90;;;;;;5091044;28;20174;-86
2022/09/26 01:54:52;;;;;;;0.30;0.30;;;11.00;99.90;;;;;;5083782;28;20047;-85
2022/09/26 01:57:27;;;;;;;0.40;0.40;;;10.90;99.90;;;;;;5078876;28;20092;-86
2022/09/26 02:00:00;;;;;;;0.47;0.47;;;10.90;99.90;;;;;;5053405;28;20080;-86
2022/09/26 02:02:32;;;;;;;0.52;0.52;;;10.90;99.90;;;;;;5067094;28;20082;-88
2022/09/26 02:05:07;;;;;;;0.40;0.40;;;10.90;99.90;;;;;;5085231;28;20118;-87
2022/09/26 02:07:42;;;;;;;0.40;0.40;;;10.90;99.90;;;;;;5064207;28;20040;-87
2022/09/26 02:10:17;;;;;;;0.40;0.40;;;10.90;99.90;;;;;;5076257;28;20051;-88
2022/09/26 02:12:47;;;;;;;0.45;0.45;;;10.90;99.90;;;;;;5092098;28;20043;-87
2022/09/26 02:15:17;;;;;;;0.40;0.40;;;10.90;99.90;;;;;;5073342;28;20036;-85
2022/09/26 02:17:51;;;;;;;0.40;0.40;;;10.80;99.90;;;;;;5080480;28;20043;-86
2022/09/26 02:20:28;;;;;;;0.50;0.50;;;10.80;99.90;;;;;;5062541;28;20049;-87
2022/09/26 02:22:56;;;;;;;1.20;0.60;;;10.80;99.90;;;;;;5077129;28;20051;-86
2022/09/26 02:25:22;;;;;;;0.45;0.45;;;10.70;99.90;;;;;;5051463;28;20036;-86
2022/09/26 02:27:49;;;;;;;0.52;0.52;;;10.70;99.90;;;;;;5081926;28;20431;-85
2022/09/26 02:30:14;;;;;;;0.80;0.80;;;10.70;99.90;;;;;;5086017;28;20047;-87
2022/09/26 02:32:41;;;;;;;0.75;0.75;;;10.70;99.90;;;;;;5055606;28;20109;-85
2022/09/26 02:37:53;;;;;;;0.50;0.50;;;10.60;99.90;;;;;;5074032;28;20144;-85
2022/09/26 02:40:26;;;;;;;0.45;0.45;;;10.70;99.90;;;;;;5085306;28;20538;-87
2022/09/26 02:43:27;;;;;;;0.40;0.40;;;10.60;99.90;;;;;;5086384;28;20088;-86
2022/09/26 02:46:09;;;;;;;0.40;0.40;;;10.60;99.90;;;;;;5073123;28;20061;-86
2022/09/26 02:49:06;;;;;;;0.70;0.70;;;10.60;99.90;;;;;;5069045;28;20077;-88
2022/09/26 02:52:06;;;;;;;0.65;0.40;;;10.50;99.90;;;;;;5046858;28;20051;-89
2022/09/26 02:54:45;;;;;;;0.73;0.73;;;10.50;99.90;;;;;;5081930;28;20558;-88
2022/09/26 02:57:50;;;;;;;1.05;1.05;;;10.50;99.90;;;;;;5099109;28;20056;-85
2022/09/26 03:00:23;;;;;;;0.50;0.50;;;10.50;99.90;;;;;;5082987;28;20101;-87
2022/09/26 03:02:55;;;;;;;0.40;0.40;;;10.50;99.90;;;;;;5052264;28;20124;-88
2022/09/26 03:05:28;;;;;;;0.60;0.60;;;10.40;99.90;;;;;;5077940;28;20043;-85
2022/09/26 03:08:11;;;;;;;0.50;0.50;;;10.40;99.90;;;;;;5092065;28;20426;-88
2022/09/26 03:10:38;;;;;;;0.32;0.32;;;10.40;99.90;;;;;;5080293;28;20105;-87
2022/09/26 03:13:08;;;;;;;0.45;0.45;;;10.40;99.90;;;;;;5068790;28;20052;-84
2022/09/26 03:15:35;;;;;;;0.85;0.60;;;10.40;99.90;;;;;;5084189;28;20481;-86
2022/09/26 03:18:03;;;;;;;0.40;0.40;;;10.40;99.90;;;;;;5089065;28;20043;-86
2022/09/26 03:20:29;;;;;;;0.40;0.40;;;10.40;99.90;;;;;;5083856;28;20431;-86
2022/09/26 03:22:55;;;;;;;0.30;0.30;;;10.30;99.90;;;;;;5086003;28;20044;-87
2022/09/26 03:25:23;;;;;;;0.60;0.60;;;10.60;99.90;;;;;;5071664;28;20037;-87
2022/09/26 03:27:51;;;;;;;0.70;0.70;;;10.40;99.90;;;;;;5069257;28;20036;-86
2022/09/26 03:30:18;;;;;;;0.30;0.30;;;10.50;99.90;;;;;;5065529;28;20071;-86
2022/09/26 03:32:44;;;;;;;0.95;0.95;;;10.50;99.90;;;;;;5070274;28;20477;-86
2022/09/26 03:35:10;;;;;;;0.43;0.43;;;10.50;99.90;;;;;;5071489;28;20063;-83
2022/09/26 03:37:36;;;;;;;0.30;0.30;;;10.50;99.90;;;;;;5077807;28;20044;-83
2022/09/26 03:40:08;;;;;;;0.30;0.30;;;10.50;99.90;;;;;;5070541;28;20055;-84
2022/09/26 03:42:35;;;;;;;0.30;0.30;;;10.50;99.90;;;;;;5080443;28;20041;-85
2022/09/26 03:45:02;;;;;;;0.50;0.50;;;10.50;99.90;;;;;;5073556;28;20036;-85
2022/09/26 03:47:28;;;;;;;0.40;0.40;;;10.50;99.90;;;;;;5087777;28;20460;-85
2022/09/26 03:49:55;;;;;;;0.45;0.45;;;10.50;99.90;;;;;;5084730;28;20044;-85
2022/09/26 03:52:20;;;;;;;0.40;0.40;;;10.50;99.90;;;;;;5080339;28;20055;-86
2022/09/26 03:54:46;;;;;;;0.52;0.52;;;10.50;99.90;;;;;;5081533;28;20485;-85
2022/09/26 03:57:15;;;;;;;0.60;0.60;;;10.50;99.90;;;;;;5090237;28;20051;-85
2022/09/26 03:59:42;;;;;;;0.40;0.40;;;10.50;99.90;;;;;;5049824;28;20041;-86
2022/09/26 04:02:08;;;;;;;;;;;10.50;99.90;;;;;;5056181;28;20128;-87
2022/09/26 04:04:37;;;;;;;0.40;0.40;;;10.50;99.90;;;;;;5084235;28;21734;-86
2022/09/26 04:07:03;;;;;;;0.40;0.40;;;10.50;99.90;;;;;;5092334;28;20564;-86
2022/09/26 04:09:29;;;;;;;0.28;0.28;;;10.50;99.90;;;;;;5086587;28;20396;-86
2022/09/26 04:11:54;;;;;;;0.40;0.40;;;10.50;99.90;;;;;;5059422;28;20108;-85
2022/09/26 04:14:20;;;;;;;0.50;0.50;;;10.50;99.90;;;;;;5093236;28;20789;-87
2022/09/26 04:16:46;;;;;;;0.35;0.35;;;10.50;99.90;;;;;;5071227;28;20150;-87
2022/09/26 04:19:12;;;;;;;0.50;0.50;;;10.50;99.90;;;;;;5093672;28;20083;-89
2022/09/26 04:21:40;;;;;;;0.50;0.50;;;10.50;99.90;;;;;;5083260;28;20047;-85
2022/09/26 04:24:07;;;;;;;0.50;0.50;;;10.50;99.90;;;;;;5066570;28;20396;-87
2022/09/26 04:26:33;;;;;;;0.38;0.38;;;10.50;99.90;;;;;;5089516;28;20122;-87
2022/09/26 04:28:59;;;;;;;0.43;0.43;;;10.50;99.90;;;;;;5077852;28;20119;-85
2022/09/26 04:31:26;;;;;;;0.90;0.85;;;10.50;99.90;;;;;;5075128;28;20075;-85
2022/09/26 04:33:55;;;;;;;0.47;0.47;;;10.60;99.90;;;;;;5069142;28;20036;-87
2022/09/26 04:36:22;;;;;;;0.40;0.40;;;10.50;99.90;;;;;;5043280;28;20065;-85
2022/09/26 04:38:48;;;;;;;0.38;0.38;;;10.50;99.90;;;;;;5072217;28;20128;-86
2022/09/26 04:41:19;;;;;;;0.73;0.73;;;10.50;99.90;;;;;;5076359;28;20459;-84
2022/09/26 04:43:45;;;;;;;1.08;1.08;;;10.40;99.90;;;;;;5092145;28;20444;-86
2022/09/26 04:46:15;;;;;;;1.98;1.88;;;10.50;99.90;;;;;;5082811;28;20069;-87
2022/09/26 04:48:41;;;;;;;0.80;0.80;;;10.50;99.90;;;;;;5069772;28;20036;-84
2022/09/26 04:51:09;;;;;;;0.35;0.35;;;10.50;99.90;;;;;;5076202;28;20040;-88
2022/09/26 04:53:36;;;;;;;0.30;0.30;;;10.40;99.90;;;;;;5065912;28;20036;-86
2022/09/26 04:56:02;;;;;;;1.90;1.80;;;10.40;99.90;;;;;;5069692;28;20503;-85
2022/09/26 04:58:29;;;;;;;0.40;0.40;;;10.50;99.90;;;;;;5067755;28;20036;-84
2022/09/26 05:00:55;;;;;;;0.40;0.40;;;10.40;99.90;;;;;;5081080;28;20593;-85
2022/09/26 05:03:20;;;;;;;;;;;10.40;99.90;;;;;;5091760;28;20113;-84
2022/09/26 05:05:46;;;;;;;0.40;0.40;;;10.40;99.90;;;;;;5050939;28;20357;-85
2022/09/26 05:08:13;;;;;;;0.52;0.52;;;10.50;99.90;;;;;;5081600;28;20066;-86
2022/09/26 05:10:40;;;;;;;0.38;0.38;;;10.50;99.90;;;;;;5068844;28;20050;-86
2022/09/26 05:13:06;;;;;;;0.38;0.38;;;10.50;99.90;;;;;;5045127;28;20068;-86
2022/09/26 05:15:38;;;;;;;3.00;1.10;;;10.50;99.90;;;;;;5087778;28;20064;-85
2022/09/26 05:18:06;;;;;;;0.40;0.40;;;10.50;99.90;;;;;;5065827;28;20067;-85
2022/09/26 05:20:33;;;;;;;0.50;0.50;;;10.40;99.90;;;;;;5041206;28;20460;-85
2022/09/26 05:23:00;;;;;;;0.38;0.38;;;10.40;99.90;;;;;;5082048;28;20447;-86
2022/09/26 05:28:14;;;;;;;0.35;0.35;;;10.30;99.90;;;;;;5079005;28;20101;-86
2022/09/26 05:30:40;;;;;;;1.65;1.55;;;10.30;99.90;;;;;;5093364;28;20036;-86
2022/09/26 05:33:06;;;;;;;;;;;10.40;99.90;;;;;;5093401;28;20070;-85
2022/09/26 05:35:34;;;;;;;0.45;0.45;;;10.40;99.90;;;;;;5076956;28;19919;-86
2022/09/26 05:38:01;;;;;;;0.80;0.80;;;9.90;99.90;;;;;;5083236;28;20442;-86
2022/09/26 05:43:12;;;;;;;0.50;0.50;;;10.40;99.90;;;;;;5077593;28;20480;-83
2022/09/26 05:45:37;;;;;;;0.50;0.50;;;10.40;99.90;;;;;;5072537;28;20086;-86
2022/09/26 05:48:09;;;;;;;0.30;0.30;;;10.40;99.90;;;;;;5071189;28;20043;-85
2022/09/26 05:50:35;;;;;;;0.40;0.40;;;10.40;99.90;;;;;;5085812;28;20037;-85
2022/09/26 05:53:02;;;;;;;3.50;2.22;;;10.80;99.90;;;;;;5037326;28;20086;-85
2022/09/26 05:55:28;;;;;;;0.73;0.47;;;10.40;99.90;;;;;;5081536;28;20048;-84
2022/09/26 05:57:59;;;;;;;0.70;0.70;;;11.80;99.90;;;;;;5065664;28;20050;-85
2022/09/26 06:00:26;;;;;;;0.52;0.52;;;10.40;99.90;;;;;;5081619;28;20044;-85
2022/09/26 06:02:57;;;;;;;0.50;0.50;;;10.30;99.90;;;;;;5073483;28;20067;-86
2022/09/26 06:05:26;;;;;;;0.50;0.50;;;10.40;99.90;;;;;;5067337;28;20044;-85
2022/09/26 06:07:52;;;;;;;0.40;0.40;;;10.40;99.90;;;;;;5062670;28;20040;-85
2022/09/26 06:10:19;;;;;;;0.57;0.57;;;10.30;99.90;;;;;;5061945;28;20036;-84
2022/09/26 06:12:45;;;;;;;0.93;0.93;;;10.30;99.90;;;;;;5070940;28;20132;-84
2022/09/26 06:15:11;;;;;;;0.55;0.55;;;11.00;99.90;;;;;;5083763;28;20036;-84
2022/09/26 06:17:37;;;;;;;0.77;0.77;;;10.30;99.90;;;;;;5052101;28;20366;-85
2022/09/26 06:20:04;;;;;;;0.43;0.43;;;10.30;99.90;;;;;;5051527;28;20066;-85
2022/09/26 06:22:37;;;;;;;0.35;0.35;;;10.30;99.90;;;;;;5069207;28;20051;-85
2022/09/26 06:25:02;;;;;;;1.13;1.13;;;10.30;99.90;;;;;;5087574;28;20047;-85
2022/09/26 06:27:31;;;;;;;0.60;0.60;;;10.30;99.90;;;;;;5086985;28;20043;-85
2022/09/26 06:29:57;;;;;;;0.40;0.40;;;10.30;99.90;;;;;;5084160;28;20344;-86
2022/09/26 06:32:22;;;;;;;0.22;0.22;;;10.30;99.90;;;;;;5050005;28;20047;-84
2022/09/26 06:34:49;;;;;;;0.52;0.52;;;10.30;99.90;;;;;;5064128;28;20052;-84
2022/09/26 06:37:14;;;;;;;;;;;10.30;99.90;;;;;;5062683;28;20507;-85
2022/09/26 06:39:40;;;;;;;0.30;0.30;;;10.30;99.90;;;;;;5055367;28;20009;-86
2022/09/26 06:42:06;;;;;;;0.32;0.32;;;10.30;99.90;;;;;;5045409;28;20470;-86
2022/09/26 06:44:32;;;;;;;0.40;0.40;;;10.30;99.90;;;;;;5088942;28;20036;-85
2022/09/26 06:47:01;;;;;;;0.50;0.50;;;10.30;99.90;;;;;;5061580;28;20048;-86
2022/09/26 06:49:28;;;;;;;0.40;0.40;;;10.30;99.90;;;;;;5066154;28;20044;-85
2022/09/26 06:52:01;;;;;;;1.05;1.05;;;10.20;99.90;;;;;;5073794;28;20385;-85
2022/09/26 06:54:27;;;;;;;0.40;0.40;;;10.30;99.90;;;;;;5080337;28;20458;-85
2022/09/26 06:56:52;;;;;;;0.30;0.30;;;10.30;99.90;;;;;;5083798;28;20044;-82
2022/09/26 06:59:18;;;;;;;0.47;0.47;;;10.30;99.90;;;;;;5080746;28;20397;-84
2022/09/26 07:01:47;;;;;;;0.50;0.50;;;10.20;99.90;;;;;;5079750;28;20069;-85
2022/09/26 07:04:14;;;;;;;0.30;0.30;;;10.50;99.90;;;;;;5028847;28;20046;-86
2022/09/26 07:06:41;;;;;;;0.63;0.63;;;10.30;99.90;;;;;;5064355;28;20071;-85
2022/09/26 07:09:08;;;;;;;0.50;0.50;;;10.30;99.90;;;;;;5054820;28;20803;-85
2022/09/26 07:11:34;;;;;;;0.55;0.55;;;10.30;99.90;;;;;;5086675;28;20094;-85
2022/09/26 07:14:00;;;;;;;2.38;0.50;;;10.30;99.90;;;;;;5077172;28;20076;-85
2022/09/26 07:16:27;;;;;;;0.55;0.55;;;10.40;99.90;;;;;;5078455;28;20531;-86
2022/09/26 07:18:53;;;;;;;0.60;0.60;;;10.50;99.90;;;;;;5079633;28;20072;-86
2022/09/26 07:21:19;;;;;;;1.55;1.05;;;10.50;99.90;;;;;;5067302;28;20091;-86
2022/09/26 07:23:45;;;;;;;0.43;0.43;;;10.50;99.90;;;;;;5054376;28;20444;-85
2022/09/26 07:26:11;;;;;;;0.60;0.60;;;10.60;99.90;;;;;;5077644;28;20500;-85
2022/09/26 07:28:37;;;;;;;0.70;0.70;;;10.50;99.90;;;;;;5059716;28;20043;-84
2022/09/26 07:31:04;;;;;;;0.68;0.68;;;10.60;99.90;;;;;;5047892;28;20048;-84
2022/09/26 07:33:30;;;;;;;1.10;1.00;;;10.60;99.90;;;;;;5056468;28;20441;-82
2022/09/26 07:35:56;;;;;;;0.50;0.50;;;10.60;99.90;;;;;;5064813;28;20474;-83
2022/09/26 07:38:23;;;;;;;0.43;0.43;;;10.60;99.90;;;;;;5087938;28;20455;-83
2022/09/26 07:40:53;;;;;;;0.80;0.50;;;10.60;99.90;;;;;;5083547;28;20028;-84
2022/09/26 07:43:22;;;;;;;1.45;1.40;;;10.60;99.90;;;;;;5055817;28;20048;-83
2022/09/26 07:51:21;;;;;;;0.55;0.55;;;10.50;99.90;;;;;;5065535;28;20043;-84
2022/09/26 07:53:49;;;;;;;0.40;0.40;;;10.60;99.90;;;;;;5063735;28;20512;-83
2022/09/26 07:56:15;;;;;;;0.43;0.43;;;10.60;99.90;;;;;;5069370;28;20474;-83
2022/09/26 07:58:42;;;;;;;0.40;0.40;;;10.70;99.90;;;;;;5081404;28;20048;-83
2022/09/26 08:01:13;;;;;;;0.55;0.55;;;10.70;99.90;;;;;;5058835;28;20044;-83
2022/09/26 08:03:44;;;;;;;0.35;0.35;;;10.80;99.90;;;;;;5066000;28;20078;-83
2022/09/26 08:06:12;;;;;;;0.90;0.90;;;10.90;99.90;;;;;;5077902;28;20053;-84
2022/09/26 08:08:38;;;;;;;0.40;0.40;;;10.90;99.90;;;;;;5075883;28;20044;-83
2022/09/26 08:11:04;;;;;;;0.40;0.40;;;11.00;99.90;;;;;;5083723;28;20079;-84
2022/09/26 08:13:31;;;;;;;0.40;0.40;;;11.00;99.90;;;;;;5076229;28;20048;-83
2022/09/26 08:16:04;;;;;;;0.30;0.30;;;11.10;99.90;;;;;;5093516;28;20123;-84
2022/09/26 08:18:32;;;;;;;1.13;0.93;;;11.20;99.90;;;;;;5063756;28;20383;-84
2022/09/26 08:20:58;;;;;;;0.30;0.30;;;11.20;99.90;;;;;;5045600;28;20051;-83
2022/09/26 08:23:24;;;;;;;0.40;0.40;;;11.30;99.90;;;;;;5051877;28;20048;-84
2022/09/26 08:25:49;;;;;;;;;;;11.30;99.90;;;;;;5088770;28;20047;-80
2022/09/26 08:28:16;;;;;;;0.35;0.35;;;11.40;99.90;;;;;;5089557;28;19998;-82
2022/09/26 08:30:43;;;;;;;0.40;0.40;;;11.40;99.90;;;;;;5082567;28;20044;-82
2022/09/26 08:33:11;;;;;;;0.35;0.35;;;11.40;99.90;;;;;;5053618;28;20052;-83
2022/09/26 08:35:37;;;;;;;1.88;1.77;;;11.30;99.90;;;;;;5083644;28;20055;-84
2022/09/26 08:38:07;;;;;;;0.50;0.50;;;11.30;99.90;;;;;;5086137;28;20378;-82
2022/09/26 08:40:45;;;;;;;0.30;0.30;;;11.30;99.90;;;;;;5089978;28;20047;-83
2022/09/26 08:43:40;;;;;;;0.52;0.52;;;11.30;99.90;;;;;;5077426;28;20040;-81
2022/09/26 08:49:07;;;;;;;0.50;0.50;;;11.40;99.90;;;;;;5080618;28;20062;-83
2022/09/26 08:51:44;;;;;;;0.40;0.40;;;11.30;99.90;;;;;;5091064;28;20040;-84
2022/09/26 08:54:31;;;;;;;0.30;0.30;;;11.30;99.90;;;;;;5063537;28;20063;-85
2022/09/26 08:57:05;;;;;;;0.70;0.70;;;11.30;99.90;;;;;;5091533;28;20115;-84
2022/09/26 08:59:44;;;;;;;0.40;0.40;;;11.30;99.90;;;;;;5084132;28;20053;-86
2022/09/26 09:02:30;;;;;;;0.43;0.43;;;11.40;99.90;;;;;;5088927;28;20047;-84
2022/09/26 09:05:11;;;;;;;0.30;0.30;;;11.40;99.90;;;;;;5069133;28;20032;-87
2022/09/26 09:07:37;;;;;;;0.30;0.30;;;11.40;99.90;;;;;;5068035;28;20068;-85
2022/09/26 09:10:09;;;;;;;0.40;0.40;;;11.40;99.90;;;;;;5080665;28;20083;-84
2022/09/26 09:12:38;;;;;;;0.90;0.90;;;11.40;99.90;;;;;;5093657;28;20405;-84
2022/09/26 09:15:32;;;;;;;0.30;0.30;;;11.40;99.90;;;;;;5093746;28;20044;-84
2022/09/26 09:18:10;;;;;;;0.40;0.40;;;11.40;99.90;;;;;;5069928;28;20048;-84
2022/09/26 09:20:42;;;;;;;0.30;0.30;;;11.50;99.90;;;;;;5084234;28;20049;-83
2022/09/26 09:23:27;;;;;;;0.57;0.57;;;11.50;99.90;;;;;;5073126;28;20191;-85
2022/09/26 09:26:04;;;;;;;0.38;0.38;;;11.60;99.90;;;;;;5076180;28;20055;-84
2022/09/26 09:29:00;;;;;;;0.40;0.40;;;11.70;99.90;;;;;;5064833;28;20332;-83
2022/09/26 09:31:32;;;;;;;0.22;0.22;;;11.70;99.90;;;;;;5098873;28;20123;-84
2022/09/26 09:34:03;;;;;;;0.30;0.30;;;11.70;99.90;;;;;;5102055;28;20112;-84
2022/09/26 09:36:47;;;;;;;0.35;0.35;;;11.70;99.90;;;;;;5085869;28;20025;-85
2022/09/26 09:39:38;;;;;;;0.40;0.40;;;11.60;99.90;;;;;;5085606;28;20366;-83
2022/09/26 09:42:17;;;;;;;0.40;0.40;;;11.60;99.90;;;;;;5095284;28;20067;-84
2022/09/26 09:44:47;;;;;;;0.60;0.60;;;11.70;99.90;;;;;;5081047;28;20123;-85
2022/09/26 09:47:15;;;;;;;0.50;0.50;;;11.60;99.90;;;;;;5066543;28;20106;-86
2022/09/26 09:49:43;;;;;;;0.40;0.40;;;11.60;99.90;;;;;;5068165;28;20048;-85
2022/09/26 09:52:43;;;;;;;0.57;0.57;;;11.60;99.90;;;;;;5066569;28;20135;-83
2022/09/26 09:55:29;;;;;;;0.40;0.40;;;11.60;99.90;;;;;;5077678;28;20095;-81
2022/09/26 09:58:10;;;;;;;0.50;0.50;;;11.60;99.90;;;;;;5082510;28;20119;-82
2022/09/26 10:00:42;;;;;;;0.40;0.40;;;11.70;99.90;;;;;;5081898;28;20089;-85
2022/09/26 10:03:32;;;;;;;0.40;0.40;;;11.70;99.90;;;;;;5081114;28;20040;-83
2022/09/26 10:06:00;;;;;;;0.55;0.55;;;11.70;99.90;;;;;;5076056;28;20377;-82
2022/09/26 10:08:32;;;;;;;0.40;0.40;;;11.70;99.90;;;;;;5059595;28;20039;-82
2022/09/26 10:11:24;;;;;;;0.35;0.35;;;11.60;99.90;;;;;;5091270;28;20097;-83
2022/09/26 10:13:59;;;;;;;0.40;0.40;;;11.60;99.90;;;;;;5071321;28;20435;-83
2022/09/26 10:16:25;;;;;;;0.50;0.50;;;11.60;99.90;;;;;;5074595;28;20102;-83
2022/09/26 10:19:06;;;;;;;0.47;0.47;;;11.50;99.90;;;;;;5077991;28;20044;-84
2022/09/26 10:21:55;;;;;;;0.65;0.65;;;11.50;99.90;;;;;;5088791;28;20090;-84
2022/09/26 10:24:44;;;;;;;0.35;0.35;;;11.50;99.90;;;;;;5082292;28;20040;-82
2022/09/26 10:27:21;;;;;;;1.58;1.58;;;11.50;99.90;;;;;;5071744;28;20093;-80
2022/09/26 10:29:58;;;;;;;0.30;0.30;;;11.50;99.90;;;;;;5083047;28;20052;-83
2022/09/26 10:32:25;;;;;;;0.50;0.50;;;11.60;99.90;;;;;;5084341;28;20044;-82
2022/09/26 10:35:17;;;;;;;0.50;0.50;;;11.70;99.90;;;;;;5082883;28;20051;-83
2022/09/26 10:38:02;;;;;;;0.30;0.30;;;11.80;99.90;;;;;;5088363;28;20430;-83
2022/09/26 10:40:44;;;;;;;0.47;0.47;;;11.90;99.90;;;;;;5075906;28;20052;-83
2022/09/26 10:43:31;;;;;;;0.30;0.30;;;12.00;99.90;;;;;;5072277;28;20517;-83
2022/09/26 10:46:13;;;;;;;0.60;0.60;;;12.00;99.90;;;;;;5083110;28;20047;-81
2022/09/26 10:48:50;;;;;;;0.80;0.80;;;12.00;99.90;;;;;;5064675;28;20082;-84
2022/09/26 10:51:19;;;;;;;;;;;11.90;99.90;;;;;;5056340;28;20448;-82
2022/09/26 10:53:50;;;;;;;0.40;0.40;;;11.70;99.90;;;;;;5084120;28;19920;-82
2022/09/26 10:56:25;;;;;;;0.50;0.50;;;11.70;99.90;;;;;;5077764;28;20033;-83
2022/09/26 10:58:56;;;;;;;0.40;0.40;;;11.60;99.90;;;;;;5082055;28;20540;-81
2022/09/26 11:01:25;;;;;;;0.32;0.32;;;11.50;99.90;;;;;;5056386;28;20123;-84
2022/09/26 11:03:56;;;;;;;0.50;0.50;;;11.50;99.90;;;;;;5088962;28;20078;-81
2022/09/26 11:06:43;;;;;;;0.47;0.47;;;11.50;99.90;;;;;;5082491;28;20067;-83
2022/09/26 11:09:12;;;;;;;0.40;0.40;;;11.50;99.90;;;;;;5073545;28;20082;-83
2022/09/26 11:11:41;;;;;;;0.47;0.47;;;11.50;99.90;;;;;;5088602;28;20409;-83
2022/09/26 11:14:08;;;;;;;0.52;0.52;;;11.50;99.90;;;;;;5065596;28;20041;-82
2022/09/26 11:16:45;;;;;;;0.50;0.50;;;11.60;99.90;;;;;;5069088;28;20126;-80
2022/09/26 11:19:27;;;;;;;0.20;0.20;;;11.50;99.90;;;;;;5055097;28;20136;-81
2022/09/26 11:22:24;;;;;;;0.50;0.50;;;11.50;99.90;;;;;;5086024;28;20083;-81
2022/09/26 11:25:16;;;;;;;0.30;0.30;;;11.50;99.90;;;;;;5068619;28;20137;-81
2022/09/26 11:27:49;;;;;;;0.30;0.30;;;11.50;99.90;;;;;;5056190;28;20386;-80
2022/09/26 11:30:20;;;;;;;0.57;0.57;;;11.50;99.90;;;;;;5062758;28;20113;-81
2022/09/26 11:32:54;;;;;;;0.40;0.40;;;11.50;99.90;;;;;;5072273;28;20082;-82
2022/09/26 11:35:44;;;;;;;0.80;0.80;;;11.50;99.90;;;;;;5089250;28;20039;-80
2022/09/26 11:38:31;;;;;;;1.48;1.48;;;11.60;99.90;;;;;;5063613;28;20101;-82
2022/09/26 11:41:12;;;;;;;0.77;0.77;;;11.50;99.90;;;;;;5070861;28;20399;-82
2022/09/26 11:43:56;;;;;;;0.50;0.50;;;11.50;99.90;;;;;;5090087;28;20048;-82
2022/09/26 11:46:40;;;;;;;0.43;0.43;;;11.50;99.90;;;;;;5089647;28;20032;-81
2022/09/26 11:49:43;;;;;;;0.50;0.50;;;11.50;99.90;;;;;;5076645;28;20051;-83
2022/09/26 11:52:36;;;;;;;0.40;0.40;;;11.50;99.90;;;;;;5081408;28;20051;-80
2022/09/26 11:55:29;;;;;;;0.40;0.40;;;11.50;99.90;;;;;;5082513;28;20040;-81
2022/09/26 11:58:14;;;;;;;0.70;0.70;;;11.50;99.90;;;;;;5086987;28;20063;-81
2022/09/26 12:00:53;;;;;;;0.25;0.25;;;11.60;99.90;;;;;;5084974;28;20043;-81
2022/09/26 12:03:42;;;;;;;0.65;0.60;;;11.70;99.90;;;;;;5077063;28;20068;-82
2022/09/26 12:06:43;;;;;;;0.40;0.40;;;11.70;99.90;;;;;;5065906;28;20036;-82
2022/09/26 12:09:51;;;;;;;0.30;0.30;;;11.80;99.90;;;;;;5071944;28;20101;-81
2022/09/26 12:12:36;;;;;;;0.30;0.30;;;11.80;99.90;;;;;;5077707;28;20052;-82
2022/09/26 12:15:20;;;;;;;0.30;0.30;;;11.80;99.90;;;;;;5090453;28;20047;-82
2022/09/26 12:18:04;;;;;;;0.40;0.40;;;11.90;99.90;;;;;;5089622;28;20420;-80
2022/09/26 12:20:42;;;;;;;0.40;0.40;;;11.90;99.90;;;;;;5053505;28;20048;-81
2022/09/26 12:23:42;;;;;;;0.57;0.57;;;12.00;99.90;;;;;;5061686;28;20048;-81
2022/09/26 12:26:38;;;;;;;0.50;0.50;;;12.00;99.90;;;;;;5079766;28;20489;-81
2022/09/26 12:29:13;;;;;;;0.40;0.40;;;12.00;99.90;;;;;;5057568;28;20069;-81
2022/09/26 12:31:53;;;;;;;1.38;0.82;;;12.00;99.90;;;;;;5090211;28;20046;-80
2022/09/26 12:34:49;;;;;;;0.35;0.35;;;12.10;99.90;;;;;;5084083;28;20064;-82
2022/09/26 12:37:44;;;;;;;0.40;0.40;;;12.10;99.90;;;;;;5077087;28;20468;-81
2022/09/26 12:40:28;;;;;;;0.30;0.30;;;12.10;99.90;;;;;;5056915;28;20120;-83
2022/09/26 12:43:18;;;;;;;0.45;0.45;;;12.10;99.90;;;;;;5081352;28;20040;-81
2022/09/26 12:46:11;;;;;;;0.70;0.70;;;12.20;99.90;;;;;;5089993;28;20055;-82
2022/09/26 12:49:00;;;;;;;2.13;0.88;;;12.40;99.90;;;;;;5064466;28;20036;-81
2022/09/26 12:51:53;;;;;;;1.65;1.10;;;12.60;99.90;;;;;;5067589;28;20087;-82
2022/09/26 12:54:39;;;;;;;0.40;0.40;;;12.70;99.90;;;;;;5063822;28;20046;-82
2022/09/26 12:57:05;;;;;;;0.40;0.40;;;12.60;99.90;;;;;;5056484;28;20131;-82
2022/09/26 13:00:08;;;;;;;0.32;0.32;;;12.50;99.90;;;;;;5088611;28;20135;-83
2022/09/26 13:02:55;;;;;;;0.30;0.30;;;12.50;99.90;;;;;;5104432;28;20044;-82
2022/09/26 13:05:43;;;;;;;0.25;0.25;;;12.50;99.90;;;;;;5096102;28;20032;-82
2022/09/26 13:08:09;;;;;;;0.30;0.30;;;12.70;99.90;;;;;;5080817;28;20119;-83
2022/09/26 13:10:47;;;;;;;0.60;0.60;;;12.80;99.90;;;;;;5081701;28;20109;-79
2022/09/26 13:13:28;;;;;;;0.40;0.40;;;12.90;99.90;;;;;;5104323;28;20048;-83
2022/09/26 13:16:25;;;;;;;0.40;0.40;;;12.90;99.90;;;;;;5104201;28;20400;-82
2022/09/26 13:18:59;;;;;;;0.60;0.60;;;12.90;99.90;;;;;;5093971;28;20039;-82
2022/09/26 13:21:43;;;;;;;0.30;0.30;;;12.90;99.90;;;;;;5092813;28;20052;-84
2022/09/26 13:24:23;;;;;;;0.35;0.35;;;13.00;99.90;;;;;;5075518;28;20036;-83
2022/09/26 13:27:00;;;;;;;0.55;0.55;;;13.00;99.90;;;;;;5086569;28;20094;-82
2022/09/26 13:29:36;;;;;;;0.32;0.32;;;13.00;99.90;;;;;;5086738;28;20068;-81
2022/09/26 13:32:46;;;;;;;0.30;0.30;;;12.80;99.90;;;;;;5080387;28;20089;-82
2022/09/26 13:35:18;;;;;;;0.60;0.60;;;12.80;99.90;;;;;;5066425;28;20551;-86
2022/09/26 13:37:52;;;;;;;0.30;0.30;;;13.00;99.90;;;;;;5070301;28;20101;-82
2022/09/26 13:40:33;;;;;;;0.30;0.30;;;13.10;99.90;;;;;;5082381;28;20058;-82